Time;durP1;ratioP1;P1;durP2;ratioP2;P2;SDS_P1;SDS_P2;PMS_P1;PMS_P2;Temp;Humidity;BMP_temperature;BMP_pressure;BME280_temperature;BME280_humidity;BME280_pressure;Samples;Min_cycle;Max_cycle;Signal;HPM_P1;HPM_P2
2022/09/20 08:01:38;;;;;;;11.75;8.15;;;;;;;12.73;91.62;102164.16;5278336;28;20403;-68
2022/09/20 08:04:12;;;;;;;9.13;4.50;;;;;;;12.70;92.29;102167.47;5279868;28;20028;-67
2022/09/20 08:06:44;;;;;;;6.30;4.15;;;;;;;12.76;92.02;102166.41;5279434;28;20033;-68
2022/09/20 08:09:15;;;;;;;7.63;4.35;;;;;;;12.86;91.96;102172.00;5279795;28;20020;-68
2022/09/20 08:11:47;;;;;;;6.47;4.00;;;;;;;12.86;91.80;102174.78;5275201;28;20032;-67
2022/09/20 08:14:19;;;;;;;7.25;4.15;;;;;;;12.84;91.17;102171.44;5258752;28;20018;-68
2022/09/20 08:16:50;;;;;;;40.47;36.22;;;;;;;12.98;91.78;102166.19;5259584;28;20027;-68
2022/09/20 08:19:22;;;;;;;6.55;4.75;;;;;;;13.11;91.04;102176.78;5259253;28;20045;-68
2022/09/20 08:21:53;;;;;;;6.32;3.88;;;;;;;13.02;87.06;102173.72;5271607;28;20476;-68
2022/09/20 08:24:25;;;;;;;4.95;3.70;;;;;;;13.10;86.27;102174.31;5268456;28;20033;-68
2022/09/20 08:26:57;;;;;;;6.55;3.75;;;;;;;13.09;86.10;102173.47;5266562;28;20071;-67
2022/09/20 08:29:28;;;;;;;7.65;4.30;;;;;;;13.18;86.44;102177.38;5257525;28;20039;-67
2022/09/20 08:32:01;;;;;;;8.20;3.78;;;;;;;13.26;85.98;102178.78;5238427;28;20030;-68
2022/09/20 08:34:32;;;;;;;6.50;3.20;;;;;;;13.28;84.43;102176.59;5262972;28;20036;-66
2022/09/20 08:37:03;;;;;;;3.72;2.90;;;;;;;13.40;85.50;102174.41;5277359;28;20033;-66
2022/09/20 08:39:35;;;;;;;5.70;2.20;;;;;;;13.82;88.71;102176.09;5279026;28;20112;-67
2022/09/20 08:42:11;;;;;;;4.50;2.38;;;;;;;13.67;82.57;102179.69;5276750;28;20060;-67
2022/09/20 08:44:51;;;;;;;4.63;2.40;;;;;;;13.89;84.00;102176.66;5262452;28;20033;-67
2022/09/20 08:47:28;;;;;;;5.97;2.53;;;;;;;13.92;81.49;102184.44;5250092;28;20531;-67
2022/09/20 08:50:03;;;;;;;5.90;2.63;;;;;;;13.92;80.20;102184.44;5245686;28;20516;-67
2022/09/20 08:52:36;;;;;;;;;;;;;;;14.08;79.52;102190.00;5259309;28;20021;-68
2022/09/20 08:55:18;;;;;;;6.57;3.28;;;;;;;14.16;79.23;102186.63;5258695;28;19909;-67
2022/09/20 08:57:53;;;;;;;11.95;3.00;;;;;;;14.35;79.65;102193.31;5261919;28;20029;-67
2022/09/20 09:00:29;;;;;;;10.80;3.20;;;;;;;14.36;77.69;102192.19;5269351;28;20080;-67
2022/09/20 09:03:06;;;;;;;6.35;1.90;;;;;;;14.33;72.92;102195.53;5257196;28;20029;-67
2022/09/20 09:05:49;;;;;;;4.22;1.67;;;;;;;14.53;76.12;102189.13;5253150;28;20021;-67
2022/09/20 09:08:27;;;;;;;7.60;2.00;;;;;;;14.52;75.15;102186.56;5258129;28;20120;-67
2022/09/20 09:11:11;;;;;;;6.03;1.92;;;;;;;14.62;74.79;102192.13;5254663;28;20438;-67
2022/09/20 09:14:03;;;;;;;8.68;1.70;;;;;;;14.62;73.96;102189.34;5236633;28;20037;-66
2022/09/20 09:16:37;;;;;;;4.43;1.85;;;;;;;14.66;72.29;102190.47;5226918;28;20018;-66
2022/09/20 09:19:43;;;;;;;6.13;1.75;;;;;;;14.84;74.39;102190.97;5243647;28;20109;-67
2022/09/20 09:22:23;;;;;;;6.50;2.03;;;;;;;14.83;72.06;102189.28;5228653;28;20485;-66
2022/09/20 09:25:13;;;;;;;7.15;1.90;;;;;;;15.05;72.76;102181.34;5236578;28;20017;-67
2022/09/20 09:28:04;;;;;;;2.97;1.42;;;;;;;15.04;66.32;102190.88;5243723;28;20025;-68
2022/09/20 09:30:46;;;;;;;6.80;1.33;;;;;;;15.07;67.54;102183.88;5264565;28;20475;-69
2022/09/20 09:33:25;;;;;;;4.72;1.40;;;;;;;15.10;67.50;102189.69;5264689;28;20098;-69
2022/09/20 09:36:02;;;;;;;5.35;1.92;;;;;;;15.12;66.85;102193.03;5260356;28;20017;-68
2022/09/20 09:38:39;;;;;;;3.53;1.42;;;;;;;14.97;64.66;102180.00;5240068;28;20037;-70
2022/09/20 09:41:30;;;;;;;7.88;2.05;;;;;;;14.90;65.27;102185.03;5222942;28;20033;-68
2022/09/20 09:44:09;;;;;;;4.32;1.77;;;;;;;14.98;65.46;102189.19;5231301;28;20021;-70
2022/09/20 09:46:41;;;;;;;6.25;1.60;;;;;;;14.88;64.68;102192.03;5249993;28;20024;-69
2022/09/20 09:49:22;;;;;;;2.80;1.20;;;;;;;15.06;68.95;102191.41;5245280;28;20036;-67
2022/09/20 09:52:15;;;;;;;3.05;1.40;;;;;;;15.21;69.35;102185.75;5242577;28;20033;-67
2022/09/20 09:54:49;;;;;;;8.70;2.63;;;;;;;15.12;68.74;102195.84;5251456;28;20026;-68
2022/09/20 09:57:31;;;;;;;4.32;2.13;;;;;;;15.18;70.46;102197.47;5261058;28;20036;-67
2022/09/20 10:00:13;;;;;;;6.57;4.13;;;;;;;15.25;71.41;102191.56;5244985;28;20445;-67
2022/09/20 10:03:06;;;;;;;7.25;2.10;;;;;;;15.11;69.08;102199.78;5243618;28;20392;-68
2022/09/20 10:05:50;;;;;;;6.35;1.33;;;;;;;15.15;69.90;102192.47;5243232;28;20033;-67
2022/09/20 10:08:26;;;;;;;4.95;1.42;;;;;;;15.10;69.19;102197.25;5246379;28;20024;-68
2022/09/20 10:11:36;;;;;;;3.47;1.50;;;;;;;15.08;70.07;102197.53;5242373;28;20037;-68
2022/09/20 10:14:37;;;;;;;6.32;1.95;;;;;;;15.01;71.56;102197.03;5242509;28;20033;-68
2022/09/20 10:17:27;;;;;;;8.45;1.40;;;;;;;14.94;71.76;102202.09;5242779;28;20018;-68
2022/09/20 10:20:07;;;;;;;5.10;1.73;;;;;;;14.84;69.74;102199.34;5253913;28;20488;-67
2022/09/20 10:23:07;;;;;;;8.05;1.60;;;;;;;14.74;69.81;102200.22;5261157;28;20025;-66
2022/09/20 10:25:49;;;;;;;3.45;1.65;;;;;;;14.78;71.34;102204.94;5263264;28;20121;-67
2022/09/20 10:28:57;;;;;;;7.47;2.10;;;;;;;14.68;72.33;102204.97;5241825;28;20473;-66
2022/09/20 10:31:36;;;;;;;4.10;2.30;;;;;;;14.56;72.60;102196.91;5231197;28;20091;-66
2022/09/20 10:34:38;;;;;;;5.30;2.10;;;;;;;14.64;74.22;102195.50;5251724;28;20023;-70
2022/09/20 10:37:39;;;;;;;5.85;1.83;;;;;;;14.70;73.64;102193.50;5248597;28;20021;-74
2022/09/20 10:40:16;;;;;;;8.73;2.50;;;;;;;14.61;73.12;102196.06;5262678;28;20029;-70
2022/09/20 10:46:18;;;;;;;9.30;2.03;;;;;;;14.80;73.07;102204.66;5254115;28;20041;-72
2022/09/20 10:49:27;;;;;;;4.25;1.60;;;;;;;14.92;73.70;102201.53;5251310;28;20131;-71
2022/09/20 10:52:39;;;;;;;6.32;1.40;;;;;;;14.97;71.91;102196.75;5221652;28;20041;-71
2022/09/20 10:55:25;;;;;;;4.57;1.50;;;;;;;15.05;72.13;102197.28;5242669;28;20025;-71
2022/09/20 10:58:14;;;;;;;9.77;2.10;;;;;;;15.07;70.89;102197.84;5245030;28;20013;-71
2022/09/20 11:01:06;;;;;;;6.63;2.05;;;;;;;14.98;70.58;102204.03;5238687;28;20061;-71
2022/09/20 11:04:00;;;;;;;3.58;1.20;;;;;;;15.12;71.42;102198.63;5239355;28;20065;-71
2022/09/20 11:07:01;;;;;;;6.75;1.52;;;;;;;15.01;71.89;102213.78;5240817;28;20032;-70
2022/09/20 11:09:49;;;;;;;12.68;6.90;;;;;;;15.08;70.94;102205.09;5241506;28;20045;-71
2022/09/20 11:12:32;;;;;;;6.07;2.50;;;;;;;14.94;69.97;102208.50;5241457;28;20032;-70
2022/09/20 11:15:33;;;;;;;5.65;1.77;;;;;;;15.04;70.91;102207.63;5241694;28;20451;-70
2022/09/20 11:18:22;;;;;;;5.32;1.75;;;;;;;15.21;70.86;102208.09;5231482;28;20538;-71
2022/09/20 11:20:57;;;;;;;5.93;2.00;;;;;;;15.39;69.59;102214.97;5228963;28;20439;-71
2022/09/20 11:23:43;;;;;;;4.93;1.90;;;;;;;15.44;66.01;102211.28;5220482;28;20117;-70
2022/09/20 11:26:45;;;;;;;5.72;2.15;;;;;;;15.66;67.57;102203.31;5227776;28;20021;-70
2022/09/20 11:29:28;;;;;;;6.13;1.50;;;;;;;15.59;66.37;102213.97;5230980;28;20489;-71
2022/09/20 11:32:13;;;;;;;3.95;1.52;;;;;;;15.58;67.76;102206.72;5240344;28;20028;-71
2022/09/20 11:34:58;;;;;;;7.07;1.93;;;;;;;15.49;66.58;102208.47;5241058;28;20029;-71
2022/09/20 11:37:38;;;;;;;3.33;1.77;;;;;;;15.52;67.56;102218.22;5242016;28;20108;-71
2022/09/20 11:40:31;;;;;;;4.60;1.50;;;;;;;15.20;65.72;102220.38;5241134;28;20033;-71
2022/09/20 11:43:06;;;;;;;8.05;4.60;;;;;;;15.27;67.10;102224.84;5241477;28;20116;-71
2022/09/20 11:45:41;;;;;;;7.38;3.63;;;;;;;15.36;67.95;102228.69;5240248;28;20034;-71
2022/09/20 11:48:42;;;;;;;3.00;1.60;;;;;;;15.28;67.29;102223.69;5240980;28;20040;-71
2022/09/20 11:51:38;;;;;;;4.95;1.20;;;;;;;15.12;66.47;102229.38;5241225;28;20317;-71
2022/09/20 11:54:22;;;;;;;5.15;1.52;;;;;;;15.17;67.15;102229.34;5243976;28;20030;-71
2022/09/20 11:56:55;;;;;;;8.02;2.97;;;;;;;15.17;67.40;102226.56;5224913;28;20045;-71
2022/09/20 11:59:38;;;;;;;3.78;2.03;;;;;;;15.21;67.17;102226.81;5256495;28;20022;-71
2022/09/20 12:02:51;;;;;;;3.70;1.27;;;;;;;15.36;68.76;102231.47;5259982;28;20037;-71
2022/09/20 12:05:28;;;;;;;4.93;1.77;;;;;;;15.26;66.33;102226.78;5258297;28;20068;-74
2022/09/20 12:08:02;;;;;;;4.90;1.50;;;;;;;15.53;69.23;102231.09;5246018;28;20117;-70
2022/09/20 12:10:38;;;;;;;4.18;1.95;;;;;;;15.47;68.86;102229.44;5239298;28;20421;-70
2022/09/20 12:13:23;;;;;;;6.25;1.30;;;;;;;15.36;66.96;102226.72;5219897;28;20501;-69
2022/09/20 12:16:02;;;;;;;2.63;1.23;;;;;;;15.35;67.86;102225.06;5219758;28;20053;-70
2022/09/20 12:18:33;;;;;;;4.97;1.98;;;;;;;15.35;67.50;102233.44;5220348;28;20025;-70
2022/09/20 12:21:11;;;;;;;5.43;1.60;;;;;;;15.39;68.08;102239.28;5218902;28;20038;-71
2022/09/20 12:23:43;;;;;;;4.93;1.30;;;;;;;15.28;66.44;102234.88;5234555;28;20282;-70
2022/09/20 12:26:17;;;;;;;16.67;9.20;;;;;;;15.35;66.74;102235.41;5248336;28;20116;-70
2022/09/20 12:29:01;;;;;;;8.45;3.35;;;;;;;15.46;67.58;102239.81;5228310;28;20037;-69
2022/09/20 12:31:36;;;;;;;7.82;1.80;;;;;;;15.53;68.76;102234.72;5234964;28;20029;-70
2022/09/20 12:34:10;;;;;;;;;;;;;;;15.61;67.30;102239.69;5240110;28;20113;-70
2022/09/20 12:37:09;;;;;;;2.75;1.25;;;;;;;15.46;66.08;102245.41;5240084;28;19909;-70
2022/09/20 12:39:51;;;;;;;3.28;1.23;;;;;;;15.48;67.37;102234.75;5251349;28;20041;-70
2022/09/20 12:42:29;;;;;;;5.35;1.30;;;;;;;15.71;66.38;102235.22;5249208;28;20042;-70
2022/09/20 12:45:06;;;;;;;4.53;1.30;;;;;;;15.95;64.15;102232.50;5251538;28;20091;-69
2022/09/20 12:47:41;;;;;;;5.13;1.30;;;;;;;16.08;61.88;102235.47;5263078;28;20087;-69
2022/09/20 12:53:13;;;;;;;4.18;1.77;;;;;;;16.06;64.13;102223.72;5263017;28;20045;-69
2022/09/20 12:56:06;;;;;;;4.13;2.13;;;;;;;16.09;63.60;102222.31;5223035;28;20037;-69
2022/09/20 12:58:38;;;;;;;4.65;1.90;;;;;;;16.06;64.06;102220.09;5243979;28;20078;-69
2022/09/20 13:01:09;;;;;;;3.15;1.13;;;;;;;16.12;64.25;102220.88;5243579;28;20083;-69
2022/09/20 13:03:48;;;;;;;3.22;1.63;;;;;;;16.05;62.88;102216.47;5241977;28;20048;-70
2022/09/20 13:06:23;;;;;;;7.13;1.40;;;;;;;16.15;63.77;102214.69;5243496;28;20141;-70
2022/09/20 13:08:57;;;;;;;5.82;1.65;;;;;;;16.12;65.08;102212.50;5245375;28;20037;-70
2022/09/20 13:11:47;;;;;;;3.92;1.35;;;;;;;15.98;62.20;102215.13;5244734;28;20502;-71
2022/09/20 13:14:28;;;;;;;3.22;1.65;;;;;;;15.82;61.48;102206.88;5262657;28;20068;-71
2022/09/20 13:17:05;;;;;;;3.78;1.10;;;;;;;15.73;62.42;102207.78;5246679;28;20396;-71
2022/09/20 13:19:43;;;;;;;6.28;2.15;;;;;;;15.68;61.47;102211.44;5243496;28;20037;-72
2022/09/20 13:22:42;;;;;;;2.67;0.90;;;;;;;15.68;60.24;102216.19;5243488;28;20025;-70
2022/09/20 13:25:15;;;;;;;3.10;1.20;;;;;;;15.59;60.40;102213.97;5246545;28;20029;-70
2022/09/20 13:28:05;;;;;;;4.63;1.90;;;;;;;15.84;61.45;102218.59;5243214;28;20410;-70
2022/09/20 13:30:40;;;;;;;3.17;1.10;;;;;;;16.19;62.66;102205.41;5241295;28;20491;-69
2022/09/20 13:33:23;;;;;;;3.55;1.00;;;;;;;16.33;58.73;102216.75;5243595;28;20408;-68
2022/09/20 13:35:57;;;;;;;3.38;1.50;;;;;;;16.59;60.39;102213.66;5240521;28;20018;-69
2022/09/20 13:38:30;;;;;;;3.72;1.25;;;;;;;16.60;58.83;102210.59;5253906;28;20475;-73
2022/09/20 13:41:09;;;;;;;3.17;1.30;;;;;;;16.49;57.61;102209.03;5245399;28;20036;-71
2022/09/20 13:43:48;;;;;;;4.85;2.08;;;;;;;16.48;59.82;102210.97;5258592;28;20028;-72
2022/09/20 13:46:20;;;;;;;4.28;2.50;;;;;;;16.46;60.17;102215.22;5247099;28;20075;-71
2022/09/20 13:48:58;;;;;;;5.43;2.45;;;;;;;16.71;60.58;102211.28;5242767;28;20029;-70
2022/09/20 13:51:35;;;;;;;6.70;4.68;;;;;;;16.83;59.20;102208.94;5241889;28;20113;-69
2022/09/20 13:54:30;;;;;;;4.90;1.83;;;;;;;16.95;59.62;102203.75;5246796;28;20024;-69
2022/09/20 13:57:05;;;;;;;5.50;1.77;;;;;;;17.13;59.83;102212.50;5237875;28;20352;-70
2022/09/20 13:59:44;;;;;;;2.42;1.50;;;;;;;17.07;56.93;102191.25;5249634;28;20123;-70
2022/09/20 14:02:28;;;;;;;4.20;1.40;;;;;;;16.99;57.91;102189.13;5253147;28;20107;-69
2022/09/20 14:05:03;;;;;;;5.25;1.63;;;;;;;16.93;58.44;102193.97;5263292;28;20025;-71
2022/09/20 14:07:35;;;;;;;3.95;1.30;;;;;;;17.06;57.36;102195.22;5256124;28;20029;-70
2022/09/20 14:10:29;;;;;;;6.38;2.05;;;;;;;17.12;57.76;102194.00;5243300;28;20026;-70
2022/09/20 14:13:05;;;;;;;11.70;8.77;;;;;;;17.21;56.95;102192.19;5246867;28;20499;-70
2022/09/20 14:15:42;;;;;;;5.03;1.95;;;;;;;17.36;56.94;102188.34;5246621;28;20033;-70
2022/09/20 14:18:17;;;;;;;4.30;1.67;;;;;;;17.38;56.70;102180.44;5252467;28;20104;-70
2022/09/20 14:20:49;;;;;;;3.28;1.40;;;;;;;17.12;53.77;102196.78;5241683;28;20528;-70
2022/09/20 14:23:22;;;;;;;3.30;0.95;;;;;;;17.00;53.57;102193.59;5247222;28;20132;-70
2022/09/20 14:26:25;;;;;;;6.25;1.10;;;;;;;17.01;55.21;102192.47;5244693;28;20030;-71
2022/09/20 14:29:35;;;;;;;3.85;1.60;;;;;;;16.99;54.45;102189.97;5255312;28;20029;-70
2022/09/20 14:32:18;;;;;;;3.58;1.20;;;;;;;16.78;53.98;102183.78;5262820;28;20036;-70
2022/09/20 14:34:55;;;;;;;4.35;2.85;;;;;;;16.78;53.60;102189.41;5245601;28;20388;-70
2022/09/20 14:37:33;;;;;;;9.32;7.63;;;;;;;16.80;54.50;102189.09;5253441;28;20456;-69
2022/09/20 14:40:17;;;;;;;5.72;2.83;;;;;;;16.85;56.04;102191.84;5245912;28;20037;-71
2022/09/20 14:42:59;;;;;;;3.65;1.48;;;;;;;16.94;56.37;102182.44;5248133;28;20028;-70
2022/09/20 14:45:41;;;;;;;3.60;1.20;;;;;;;16.77;53.20;102196.13;5244234;28;20068;-70
2022/09/20 14:48:13;;;;;;;2.60;1.80;;;;;;;16.91;57.27;102194.25;5248426;28;20222;-68
2022/09/20 14:51:05;;;;;;;3.33;1.20;;;;;;;16.73;53.29;102197.81;5249264;28;20162;-67
2022/09/20 14:53:37;;;;;;;3.60;1.85;;;;;;;16.85;56.15;102195.47;5261752;28;20294;-67
2022/09/20 14:56:10;;;;;;;7.50;1.75;;;;;;;16.77;53.98;102192.44;5246290;28;20025;-67
2022/09/20 14:59:09;;;;;;;3.92;1.80;;;;;;;16.83;55.69;102192.13;5257896;28;20025;-68
2022/09/20 15:01:54;;;;;;;5.45;1.60;;;;;;;16.76;53.08;102188.81;5244170;28;20071;-69
2022/09/20 15:04:30;;;;;;;2.57;1.20;;;;;;;16.61;53.42;102195.44;5252081;28;20099;-69
2022/09/20 15:07:04;;;;;;;7.65;1.83;;;;;;;16.56;53.35;102191.88;5250664;28;20026;-68
2022/09/20 15:09:36;;;;;;;5.30;3.38;;;;;;;16.48;54.21;102191.38;5240215;28;20028;-70
2022/09/20 15:12:13;;;;;;;9.68;1.63;;;;;;;16.45;54.82;102186.38;5241503;28;20017;-68
2022/09/20 15:14:46;;;;;;;27.02;23.38;;;;;;;16.56;55.53;102181.50;5241590;28;20350;-70
2022/09/20 15:17:19;;;;;;;3.17;1.58;;;;;;;16.51;56.04;102184.34;5240332;28;20033;-69
2022/09/20 15:19:51;;;;;;;5.68;1.85;;;;;;;16.55;55.18;102182.63;5233531;28;20083;-68
2022/09/20 15:22:22;;;;;;;6.47;2.67;;;;;;;16.65;58.11;102185.31;5241037;28;20029;-69
2022/09/20 15:24:53;;;;;;;37.00;5.40;;;;;;;16.73;58.71;102183.81;5241145;28;20025;-68
2022/09/20 15:27:26;;;;;;;4.43;1.27;;;;;;;16.59;57.21;102191.25;5240882;28;20045;-69
2022/09/20 15:29:57;;;;;;;9.35;7.32;;;;;;;16.57;57.46;102196.34;5252252;28;20033;-70
2022/09/20 15:32:29;;;;;;;6.80;2.40;;;;;;;16.55;56.32;102181.81;5254763;28;20059;-70
2022/09/20 15:35:00;;;;;;;1.33;1.00;;;;;;;16.41;55.93;102182.53;5236202;28;20017;-70
2022/09/20 15:37:31;;;;;;;8.07;1.67;;;;;;;16.53;56.33;102188.53;5220044;28;20437;-69
2022/09/20 15:40:04;;;;;;;5.40;1.25;;;;;;;16.53;55.63;102185.72;5234433;28;20037;-69
2022/09/20 15:42:36;;;;;;;3.38;1.33;;;;;;;16.71;55.98;102188.88;5248094;28;20465;-69
2022/09/20 15:45:10;;;;;;;5.65;2.03;;;;;;;16.72;55.40;102184.97;5240048;28;20033;-69
2022/09/20 15:47:41;;;;;;;2.92;1.08;;;;;;;16.83;55.53;102183.72;5230194;28;20097;-69
2022/09/20 15:50:13;;;;;;;8.75;1.40;;;;;;;17.00;55.21;102179.56;5241148;28;20068;-69
2022/09/20 15:52:46;;;;;;;4.45;1.40;;;;;;;16.98;55.09;102182.69;5252456;28;20033;-69
2022/09/20 15:55:18;;;;;;;4.47;1.23;;;;;;;16.98;55.93;102182.69;5261911;28;20408;-69
2022/09/20 15:57:50;;;;;;;3.47;1.48;;;;;;;16.97;56.24;102188.59;5261264;28;20820;-69
2022/09/20 16:00:21;;;;;;;7.65;3.13;;;;;;;17.01;53.80;102186.88;5259534;28;20037;-70
2022/09/20 16:02:52;;;;;;;6.35;2.47;;;;;;;16.99;51.92;102192.75;5244000;28;20516;-74
2022/09/20 16:05:24;;;;;;;4.75;2.35;;;;;;;16.86;50.95;102185.09;5239712;28;20106;-75
2022/09/20 16:07:56;;;;;;;3.45;1.23;;;;;;;16.83;51.11;102186.53;5240590;28;20013;-75
2022/09/20 16:10:31;;;;;;;3.75;1.00;;;;;;;16.73;51.51;102186.63;5223908;28;20029;-78
2022/09/20 16:13:02;;;;;;;3.28;1.40;;;;;;;16.80;52.99;102187.13;5235203;28;20022;-78
2022/09/20 16:15:34;;;;;;;3.95;1.33;;;;;;;16.72;53.86;102197.00;5240607;28;20396;-74
2022/09/20 16:21:07;;;;;;;4.93;1.40;;;;;;;16.59;54.29;102189.31;5239849;28;20477;-70
2022/09/20 16:23:40;;;;;;;4.50;1.30;;;;;;;16.62;54.64;102190.69;5243819;28;20529;-70
2022/09/20 16:26:14;;;;;;;3.83;1.70;;;;;;;16.52;53.71;102197.25;5237726;28;20116;-70
2022/09/20 16:28:47;;;;;;;5.25;1.48;;;;;;;16.44;54.88;102193.13;5236204;28;20055;-72
2022/09/20 16:31:38;;;;;;;3.50;1.30;;;;;;;16.50;55.65;102197.53;5247848;28;20376;-70
2022/09/20 16:34:15;;;;;;;4.43;1.25;;;;;;;16.48;55.23;102196.97;5247469;28;20029;-69
2022/09/20 16:36:55;;;;;;;3.92;1.50;;;;;;;16.49;56.04;102197.84;5245800;28;20116;-71
2022/09/20 16:39:28;;;;;;;3.03;1.40;;;;;;;16.42;56.01;102192.59;5248988;28;20014;-71
2022/09/20 16:42:04;;;;;;;8.00;2.15;;;;;;;16.35;55.58;102200.50;5244895;28;20505;-70
2022/09/20 16:44:38;;;;;;;6.40;3.65;;;;;;;16.32;55.80;102203.06;5244780;28;20513;-71
2022/09/20 16:47:21;;;;;;;8.20;4.93;;;;;;;16.26;56.01;102200.31;5250046;28;20386;-71
2022/09/20 16:49:53;;;;;;;10.80;4.57;;;;;;;16.32;55.94;102203.88;5258597;28;20030;-70
2022/09/20 16:52:27;;;;;;;4.45;3.00;;;;;;;16.21;55.71;102208.75;5244529;28;20030;-71
2022/09/20 16:54:58;;;;;;;4.22;2.47;;;;;;;16.10;56.58;102207.16;5247104;28;20036;-72
2022/09/20 16:57:37;;;;;;;4.57;2.78;;;;;;;16.15;56.44;102209.91;5234079;28;20052;-71
2022/09/20 17:00:11;;;;;;;2.55;1.17;;;;;;;16.01;55.81;102209.78;5238921;28;20100;-70
2022/09/20 17:02:42;;;;;;;37.35;29.33;;;;;;;16.06;56.74;102209.72;5235130;28;20075;-71
2022/09/20 17:05:14;;;;;;;7.32;3.45;;;;;;;16.09;57.64;102208.31;5244307;28;20437;-70
2022/09/20 17:07:45;;;;;;;4.07;2.17;;;;;;;16.08;57.67;102210.28;5244330;28;20033;-71
2022/09/20 17:10:17;;;;;;;3.75;1.60;;;;;;;15.95;58.84;102213.75;5243714;28;20032;-70
2022/09/20 17:12:51;;;;;;;5.75;1.60;;;;;;;15.90;59.11;102213.81;5244027;28;20033;-70
2022/09/20 17:15:23;;;;;;;7.18;1.70;;;;;;;15.85;59.14;102216.66;5243008;28;20018;-71
2022/09/20 17:17:57;;;;;;;3.35;1.50;;;;;;;15.82;59.13;102211.63;5242724;28;20534;-69
2022/09/20 17:20:28;;;;;;;4.40;1.95;;;;;;;15.82;59.50;102217.22;5243540;28;20040;-71
2022/09/20 17:23:00;;;;;;;4.25;1.58;;;;;;;15.78;59.75;102219.75;5243230;28;20460;-72
2022/09/20 17:25:32;;;;;;;9.15;3.47;;;;;;;15.75;60.43;102216.72;5238428;28;20026;-69
2022/09/20 17:28:03;;;;;;;6.13;2.42;;;;;;;15.62;61.32;102219.03;5229095;28;20063;-71
2022/09/20 17:30:34;;;;;;;4.65;2.70;;;;;;;15.63;61.75;102219.84;5242612;28;20037;-70
2022/09/20 17:33:06;;;;;;;8.90;4.65;;;;;;;15.60;61.76;102231.63;5243425;28;20100;-70
